Wilsonia, California
Current Conditions -  °F | °C
As of 11:56 AM on Monday 22 Dec 2014 (Local Time) from KBIH Reporting Station
Clear Clear  
Wind Chill: 73°   Ceiling: Unl
Heat Index: 73°   Visibility: 10mi
Dew Point: 28°   Wind: 29mph
Humidity: 19%   Direction: 360°N
Pressure: 30.14"   Gusts: 38mph
Location:  36.7872°N, 118.66°W
Report Text: KBIH 221956Z AUTO 36025G33KT 10SM CLR 23/M02 A3014 RMK AO2 PK WND 36033/1944 SLP175 T02281022
Loading
Personal Weather Stations






























Interactive Weather Map New forecast layout! Learn more

10-Day Weather Forecast

Advertisements
Track Severe Weather on mobile